Comer, Illinois
Current Conditions -  °F | °C
As of 3:35 AM on Sunday 26 Oct 2014 (Local Time) from K3LF Reporting Station
Clear Clear  
Wind Chill: 54°   Ceiling: Unl
Heat Index: 54°   Visibility: 10mi
Dew Point: 36°   Wind: 10mph
Humidity: 50%   Direction: 30°NNE
Pressure: 30.02"   Gusts: NA
Location:  39.2714°N, 89.9463°W
Report Text: K3LF 260835Z AUTO 03009KT 10SM CLR 12/02 A3002 RMK AO2 T01220020
Loading
Personal Weather Stations






























Interactive Weather Map
Tropical Storm Tracking
New forecast layout! Learn more

10-Day Weather Forecast

Advertisements
Track Severe Weather on mobile